Time;durP1;ratioP1;P1;durP2;ratioP2;P2;SDS_P1;SDS_P2;PMS_P1;PMS_P2;Temp;Humidity;BMP_temperature;BMP_pressure;BME280_temperature;BME280_humidity;BME280_pressure;Samples;Min_cycle;Max_cycle;Signal;HPM_P1;HPM_P2
2022/09/24 00:01:14;;;;;;;8.93;4.60;;;;;;;;;;4954358;28;20055;-73
2022/09/24 00:03:44;;;;;;;9.93;4.88;;;;;;;;;;4954525;28;20047;-73
2022/09/24 00:06:13;;;;;;;6.60;4.40;;;;;;;;;;4951644;28;20044;-75
2022/09/24 00:08:39;;;;;;;9.90;4.80;;;;;;;;;;4952525;28;20074;-73
2022/09/24 00:11:07;;;;;;;9.00;4.60;;;;;;;;;;4953204;28;20452;-73
2022/09/24 00:13:34;;;;;;;8.35;5.15;;;;;;;;;;4951705;28;20131;-77
2022/09/24 00:16:06;;;;;;;9.13;6.18;;;;;;;;;;4952348;28;20047;-71
2022/09/24 00:18:32;;;;;;;11.30;6.40;;;;;;;;;;4949440;28;20067;-76
2022/09/24 00:20:58;;;;;;;14.52;6.47;;;;;;;;;;4951489;28;20065;-72
2022/09/24 00:23:25;;;;;;;13.95;6.57;;;;;;;;;;4953909;28;20126;-75
2022/09/24 00:28:56;;;;;;;11.02;5.95;;;;;;;;;;4967839;28;20094;-73
2022/09/24 00:31:23;;;;;;;9.10;5.38;;;;;;;;;;4970433;28;20055;-75
2022/09/24 00:33:51;;;;;;;12.20;5.40;;;;;;;;;;4968799;28;20110;-72
2022/09/24 00:36:18;;;;;;;10.07;5.10;;;;;;;;;;4969000;28;20050;-76
2022/09/24 00:38:48;;;;;;;10.57;5.22;;;;;;;;;;4969015;28;20050;-75
2022/09/24 00:41:17;;;;;;;7.85;4.75;;;;;;;;;;4965806;28;20114;-73
2022/09/24 00:43:43;;;;;;;8.82;4.75;;;;;;;;;;4962604;28;20071;-73
2022/09/24 00:46:31;;;;;;;9.35;4.72;;;;;;;;;;4967732;28;20035;-72
2022/09/24 00:49:05;;;;;;;9.43;4.50;;;;;;;;;;4958509;28;20129;-73
2022/09/24 00:51:32;;;;;;;8.52;4.65;;;;;;;;;;4968647;28;20067;-73
2022/09/24 00:54:07;;;;;;;7.90;5.07;;;;;;;;;;4975122;28;20062;-72
2022/09/24 00:56:36;;;;;;;11.98;4.68;;;;;;;;;;4969410;28;20051;-73
2022/09/24 00:59:05;;;;;;;7.43;4.80;;;;;;;;;;4962444;28;20067;-74
2022/09/24 01:01:31;;;;;;;8.88;4.50;;;;;;;;;;4950205;28;20058;-71
2022/09/24 01:03:59;;;;;;;6.80;4.70;;;;;;;;;;4950731;28;20043;-74
2022/09/24 01:06:25;;;;;;;9.85;4.78;;;;;;;;;;4942968;28;20525;-73
2022/09/24 01:08:53;;;;;;;11.10;4.97;;;;;;;;;;4942229;28;20560;-73
2022/09/24 01:11:48;;;;;;;8.23;4.68;;;;;;;;;;4945658;28;20118;-74
2022/09/24 01:14:55;;;;;;;12.43;4.70;;;;;;;;;;4947110;28;20082;-73
2022/09/24 01:17:32;;;;;;;8.32;4.63;;;;;;;;;;4947950;28;20074;-74
2022/09/24 01:20:33;;;;;;;10.55;4.55;;;;;;;;;;4947511;28;20047;-72
2022/09/24 01:23:02;;;;;;;7.90;4.82;;;;;;;;;;4941704;28;20066;-74
2022/09/24 01:25:47;;;;;;;8.93;3.97;;;;;;;;;;4941715;28;20094;-72
2022/09/24 01:28:34;;;;;;;13.68;4.85;;;;;;;;;;4948190;28;20051;-73
2022/09/24 01:31:07;;;;;;;10.60;4.03;;;;;;;;;;4943323;28;20296;-71
2022/09/24 01:33:36;;;;;;;9.25;3.92;;;;;;;;;;4951942;28;20413;-75
2022/09/24 01:36:07;;;;;;;8.60;4.68;;;;;;;;;;4952479;28;20047;-73
2022/09/24 01:38:43;;;;;;;9.45;4.07;;;;;;;;;;4951913;28;20540;-73
2022/09/24 01:41:11;;;;;;;10.23;4.18;;;;;;;;;;4955367;28;20063;-73
2022/09/24 01:43:38;;;;;;;7.63;4.20;;;;;;;;;;4962656;28;20046;-73
2022/09/24 01:46:05;;;;;;;7.13;4.00;;;;;;;;;;4955301;28;20051;-73
2022/09/24 01:48:36;;;;;;;7.90;3.90;;;;;;;;;;4952914;28;20138;-74
2022/09/24 01:51:10;;;;;;;7.47;4.03;;;;;;;;;;4950610;28;20051;-73
2022/09/24 01:53:47;;;;;;;8.65;4.13;;;;;;;;;;4950052;28;20493;-72
2022/09/24 01:56:26;;;;;;;6.95;3.47;;;;;;;;;;4958546;28;20055;-72
2022/09/24 01:58:57;;;;;;;5.85;4.10;;;;;;;;;;4955175;28;20050;-73
2022/09/24 02:01:36;;;;;;;10.20;4.30;;;;;;;;;;4947903;28;20055;-73
2022/09/24 02:04:09;;;;;;;8.25;3.97;;;;;;;;;;4949433;28;20040;-74
2022/09/24 02:06:41;;;;;;;7.65;4.28;;;;;;;;;;4949082;28;20051;-73
2022/09/24 02:09:28;;;;;;;7.82;4.65;;;;;;;;;;4948928;28;20501;-73
2022/09/24 02:11:56;;;;;;;7.60;4.30;;;;;;;;;;4945745;28;20466;-73
2022/09/24 02:14:23;;;;;;;5.90;3.97;;;;;;;;;;4945015;28;20073;-72
2022/09/24 02:16:51;;;;;;;9.70;4.35;;;;;;;;;;4947213;28;20043;-74
2022/09/24 02:19:23;;;;;;;6.28;4.35;;;;;;;;;;4948791;28;20126;-72
2022/09/24 02:21:50;;;;;;;7.75;4.47;;;;;;;;;;4964315;28;20122;-73
2022/09/24 02:24:21;;;;;;;7.95;4.85;;;;;;;;;;4949501;28;20055;-72
2022/09/24 02:26:47;;;;;;;7.28;4.78;;;;;;;;;;4952164;28;20066;-74
2022/09/24 02:29:14;;;;;;;14.95;4.88;;;;;;;;;;4949708;28;20571;-73
2022/09/24 02:31:45;;;;;;;8.70;4.82;;;;;;;;;;4948182;28;20047;-72
2022/09/24 02:34:22;;;;;;;8.30;5.10;;;;;;;;;;4951592;28;20039;-72
2022/09/24 02:37:02;;;;;;;10.07;4.97;;;;;;;;;;4952447;28;20048;-72
2022/09/24 02:39:27;;;;;;;8.52;4.75;;;;;;;;;;4952815;28;20039;-73
2022/09/24 02:41:54;;;;;;;9.95;4.85;;;;;;;;;;4953473;28;20745;-74
2022/09/24 02:44:21;;;;;;;5.75;4.70;;;;;;;;;;4953433;28;20055;-74
2022/09/24 02:46:47;;;;;;;8.63;4.80;;;;;;;;;;4952018;28;20398;-71
2022/09/24 02:49:13;;;;;;;7.30;4.75;;;;;;;;;;4965403;28;20053;-75
2022/09/24 02:51:40;;;;;;;9.82;4.78;;;;;;;;;;4954915;28;20043;-73
2022/09/24 02:54:07;;;;;;;7.50;4.85;;;;;;;;;;4954277;28;20062;-72
2022/09/24 02:56:33;;;;;;;7.70;4.90;;;;;;;;;;4954880;28;20043;-74
2022/09/24 02:59:01;;;;;;;10.52;4.85;;;;;;;;;;4951929;28;20047;-73
2022/09/24 03:01:27;;;;;;;10.98;5.38;;;;;;;;;;4949715;28;20126;-74
2022/09/24 03:03:53;;;;;;;7.88;5.10;;;;;;;;;;4951632;28;20093;-74
2022/09/24 03:06:20;;;;;;;7.57;5.18;;;;;;;;;;4952605;28;20044;-74
2022/09/24 03:08:46;;;;;;;10.13;5.20;;;;;;;;;;4964720;28;20051;-72
2022/09/24 03:11:13;;;;;;;9.77;5.20;;;;;;;;;;4966028;28;20485;-71
2022/09/24 03:13:39;;;;;;;9.25;5.35;;;;;;;;;;4951279;28;20210;-73
2022/09/24 03:16:06;;;;;;;11.60;5.03;;;;;;;;;;4952442;28;20047;-74
2022/09/24 03:18:33;;;;;;;7.88;5.28;;;;;;;;;;4964840;28;20086;-71
2022/09/24 03:21:06;;;;;;;9.27;5.25;;;;;;;;;;4953218;28;20047;-71
2022/09/24 03:23:31;;;;;;;9.70;5.38;;;;;;;;;;4952680;28;20121;-74
2022/09/24 03:25:57;;;;;;;8.25;5.32;;;;;;;;;;4953520;28;20039;-72
2022/09/24 03:28:24;;;;;;;11.43;5.47;;;;;;;;;;4952105;28;20053;-74
2022/09/24 03:30:58;;;;;;;11.68;5.47;;;;;;;;;;4952313;28;20047;-71
2022/09/24 03:33:32;;;;;;;7.50;4.90;;;;;;;;;;4948009;28;20694;-74
2022/09/24 03:36:02;;;;;;;11.18;5.70;;;;;;;;;;4951460;28;20043;-71
2022/09/24 03:38:29;;;;;;;9.77;5.20;;;;;;;;;;4947951;28;20047;-73
2022/09/24 03:40:59;;;;;;;8.85;5.20;;;;;;;;;;4952419;28;20486;-72
2022/09/24 03:43:25;;;;;;;11.70;5.40;;;;;;;;;;4948457;28;20044;-74
2022/09/24 03:45:52;;;;;;;8.43;5.05;;;;;;;;;;4949596;28;20065;-74
2022/09/24 03:48:20;;;;;;;7.32;5.25;;;;;;;;;;4956907;28;20050;-73
2022/09/24 03:50:46;;;;;;;12.55;5.25;;;;;;;;;;4963831;28;20078;-74
2022/09/24 03:53:13;;;;;;;7.50;5.32;;;;;;;;;;4949563;28;20043;-72
2022/09/24 03:55:55;;;;;;;7.70;4.93;;;;;;;;;;4952702;28;20043;-73
2022/09/24 03:58:22;;;;;;;12.05;5.28;;;;;;;;;;4951542;28;20148;-75
2022/09/24 04:00:50;;;;;;;11.07;5.45;;;;;;;;;;4948457;28;20043;-73
2022/09/24 04:03:16;;;;;;;15.75;5.85;;;;;;;;;;4951358;28;20585;-73
2022/09/24 04:05:42;;;;;;;8.77;5.85;;;;;;;;;;4952175;28;20052;-73
2022/09/24 04:08:09;;;;;;;13.98;5.93;;;;;;;;;;4950848;28;20501;-72
2022/09/24 04:10:34;;;;;;;9.68;5.35;;;;;;;;;;4952478;28;20050;-75
2022/09/24 04:13:01;;;;;;;9.57;5.72;;;;;;;;;;4952631;28;20058;-72
2022/09/24 04:15:27;;;;;;;8.75;6.05;;;;;;;;;;4951389;28;21115;-73
2022/09/24 04:17:55;;;;;;;11.75;5.75;;;;;;;;;;4948000;28;20048;-72
2022/09/24 04:20:23;;;;;;;11.90;5.68;;;;;;;;;;4950549;28;20457;-72
2022/09/24 04:22:49;;;;;;;8.27;4.82;;;;;;;;;;4951619;28;20066;-72
2022/09/24 04:25:16;;;;;;;10.73;5.32;;;;;;;;;;4950916;28;20039;-72
2022/09/24 04:27:43;;;;;;;7.35;4.78;;;;;;;;;;4951301;28;20404;-73
2022/09/24 04:30:11;;;;;;;8.68;5.05;;;;;;;;;;4949984;28;20612;-72
2022/09/24 04:32:38;;;;;;;8.80;4.65;;;;;;;;;;4951118;28;20501;-72
2022/09/24 04:35:05;;;;;;;7.35;4.45;;;;;;;;;;4955784;28;20047;-71
2022/09/24 04:37:30;;;;;;;14.90;4.30;;;;;;;;;;4952125;28;20050;-72
2022/09/24 04:39:56;;;;;;;29.67;4.70;;;;;;;;;;4953123;28;20453;-73
2022/09/24 04:42:22;;;;;;;9.23;4.25;;;;;;;;;;4951585;28;20051;-72
2022/09/24 04:44:48;;;;;;;8.68;4.22;;;;;;;;;;4952731;28;20094;-73
2022/09/24 04:47:14;;;;;;;9.02;4.30;;;;;;;;;;4949337;28;20047;-72
2022/09/24 04:49:44;;;;;;;6.80;3.90;;;;;;;;;;4949940;28;20050;-73
2022/09/24 04:52:16;;;;;;;7.35;4.13;;;;;;;;;;4948809;28;20753;-74
2022/09/24 04:54:46;;;;;;;5.65;3.47;;;;;;;;;;4950412;28;20051;-72
2022/09/24 04:57:15;;;;;;;7.00;3.28;;;;;;;;;;4951161;28;20047;-73
2022/09/24 04:59:43;;;;;;;6.90;3.40;;;;;;;;;;4949379;28;20051;-73
2022/09/24 05:02:09;;;;;;;14.43;3.70;;;;;;;;;;4950533;28;20113;-72
2022/09/24 05:04:36;;;;;;;9.32;3.60;;;;;;;;;;4950816;28;20047;-73
2022/09/24 05:07:02;;;;;;;6.72;3.92;;;;;;;;;;4951425;28;20143;-72
2022/09/24 05:09:30;;;;;;;6.95;3.50;;;;;;;;;;4948272;28;20047;-74
2022/09/24 05:11:56;;;;;;;10.52;3.70;;;;;;;;;;4947866;28;20059;-73
2022/09/24 05:14:21;;;;;;;8.15;4.10;;;;;;;;;;4962644;28;20122;-71
2022/09/24 05:16:47;;;;;;;11.15;4.18;;;;;;;;;;4948944;28;20041;-71
2022/09/24 05:19:13;;;;;;;9.57;3.78;;;;;;;;;;4949225;28;20086;-73
2022/09/24 05:21:39;;;;;;;6.25;3.90;;;;;;;;;;4951082;28;20054;-75
2022/09/24 05:24:05;;;;;;;8.75;3.83;;;;;;;;;;4949965;28;20507;-75
2022/09/24 05:29:16;;;;;;;7.90;3.95;;;;;;;;;;4947813;28;20401;-71
2022/09/24 05:31:41;;;;;;;8.23;4.15;;;;;;;;;;4945959;28;20047;-74
2022/09/24 05:34:07;;;;;;;8.48;4.47;;;;;;;;;;4940295;28;20071;-74
2022/09/24 05:36:33;;;;;;;13.48;4.68;;;;;;;;;;4950346;28;20043;-77
2022/09/24 05:38:59;;;;;;;11.88;4.40;;;;;;;;;;4948256;28;20043;-72
2022/09/24 05:41:24;;;;;;;8.02;4.20;;;;;;;;;;4950834;28;20118;-73
2022/09/24 05:43:51;;;;;;;9.15;4.13;;;;;;;;;;4948215;28;20098;-74
2022/09/24 05:46:17;;;;;;;10.02;4.65;;;;;;;;;;4949477;28;20712;-72
2022/09/24 05:48:42;;;;;;;12.13;5.50;;;;;;;;;;4948921;28;20078;-75
2022/09/24 05:51:08;;;;;;;7.65;5.07;;;;;;;;;;4950013;28;20058;-74
2022/09/24 05:53:34;;;;;;;9.57;5.50;;;;;;;;;;4948539;28;20047;-73
2022/09/24 05:56:00;;;;;;;10.50;5.30;;;;;;;;;;4950233;28;20054;-70
2022/09/24 05:58:26;;;;;;;9.02;5.35;;;;;;;;;;4948952;28;20079;-74
2022/09/24 06:00:52;;;;;;;8.27;4.97;;;;;;;;;;4945008;28;20589;-73
2022/09/24 06:03:19;;;;;;;8.15;5.47;;;;;;;;;;4947036;28;20429;-74
2022/09/24 06:05:47;;;;;;;10.20;5.50;;;;;;;;;;4950706;28;20047;-75
2022/09/24 06:08:18;;;;;;;9.73;4.88;;;;;;;;;;4945769;28;20057;-75
2022/09/24 06:10:46;;;;;;;11.32;5.60;;;;;;;;;;4958580;28;20497;-79
2022/09/24 06:13:16;;;;;;;8.90;4.90;;;;;;;;;;4951488;28;20126;-74
2022/09/24 06:15:43;;;;;;;6.55;4.68;;;;;;;;;;4946957;28;20183;-75
2022/09/24 06:18:10;;;;;;;9.27;4.75;;;;;;;;;;4945331;28;20421;-77
2022/09/24 06:20:36;;;;;;;9.70;4.50;;;;;;;;;;4945377;28;20505;-72
2022/09/24 06:23:02;;;;;;;7.18;4.75;;;;;;;;;;4966113;28;20074;-74
2022/09/24 06:25:29;;;;;;;7.88;4.50;;;;;;;;;;4951870;28;20086;-78
2022/09/24 06:28:01;;;;;;;9.02;5.28;;;;;;;;;;4943535;28;20184;-73
2022/09/24 06:30:27;;;;;;;7.40;5.15;;;;;;;;;;4950577;28;20043;-71
2022/09/24 06:32:53;;;;;;;9.13;4.93;;;;;;;;;;4949997;28;20178;-73
2022/09/24 06:35:20;;;;;;;7.38;4.22;;;;;;;;;;4946081;28;20410;-71
2022/09/24 06:37:48;;;;;;;11.40;5.35;;;;;;;;;;4958632;28;20051;-74
2022/09/24 06:40:14;;;;;;;9.23;4.90;;;;;;;;;;4946887;28;20055;-80
2022/09/24 06:42:40;;;;;;;9.82;4.72;;;;;;;;;;4944086;28;20058;-75
2022/09/24 06:45:06;;;;;;;9.50;4.50;;;;;;;;;;4944170;28;20420;-78
2022/09/24 06:47:32;;;;;;;12.23;4.95;;;;;;;;;;4947406;28;20058;-77
2022/09/24 06:49:58;;;;;;;12.70;5.18;;;;;;;;;;4949768;28;20217;-72
2022/09/24 06:52:24;;;;;;;7.40;4.70;;;;;;;;;;4944245;28;20133;-73
2022/09/24 06:54:49;;;;;;;9.30;4.68;;;;;;;;;;4943056;28;20117;-75
2022/09/24 06:57:15;;;;;;;14.63;5.50;;;;;;;;;;4945243;28;20059;-74
2022/09/24 06:59:41;;;;;;;8.20;4.78;;;;;;;;;;4944724;28;20477;-76
2022/09/24 07:02:09;;;;;;;11.77;4.88;;;;;;;;;;4952148;28;20055;-74
2022/09/24 07:04:35;;;;;;;10.13;5.03;;;;;;;;;;4948949;28;20058;-77
2022/09/24 07:09:47;;;;;;;20.88;5.32;;;;;;;;;;4961101;28;20066;-75
2022/09/24 07:12:13;;;;;;;9.75;5.20;;;;;;;;;;4953859;28;20107;-74
2022/09/24 07:14:39;;;;;;;8.57;4.72;;;;;;;;;;4963810;28;20035;-73
2022/09/24 07:17:05;;;;;;;13.48;4.85;;;;;;;;;;4953141;28;20039;-74
2022/09/24 07:19:31;;;;;;;8.88;4.90;;;;;;;;;;4951097;28;20076;-80
2022/09/24 07:21:57;;;;;;;10.65;6.18;;;;;;;;;;4940340;28;20062;-73
2022/09/24 07:24:22;;;;;;;14.88;6.35;;;;;;;;;;4956187;28;20024;-72
2022/09/24 07:26:49;;;;;;;11.35;6.03;;;;;;;;;;4963877;28;20312;-73
2022/09/24 07:29:15;;;;;;;8.82;5.43;;;;;;;;;;4965337;28;20055;-79
2022/09/24 07:31:41;;;;;;;9.45;5.68;;;;;;;;;;4956760;28;20114;-75
2022/09/24 07:34:07;;;;;;;14.95;5.13;;;;;;;;;;4966411;28;20051;-74
2022/09/24 07:36:33;;;;;;;14.75;5.90;;;;;;;;;;4976690;28;20178;-79
2022/09/24 07:39:00;;;;;;;12.82;5.40;;;;;;;;;;4951893;28;20062;-73
2022/09/24 07:41:26;;;;;;;15.73;5.78;;;;;;;;;;4955868;28;20047;-77
2022/09/24 07:43:54;;;;;;;10.15;5.90;;;;;;;;;;4952087;28;20059;-75
2022/09/24 07:46:21;;;;;;;11.75;5.40;;;;;;;;;;4953524;28;20070;-73
2022/09/24 07:48:48;;;;;;;8.32;6.03;;;;;;;;;;4951601;28;20063;-73
2022/09/24 07:51:14;;;;;;;12.20;6.10;;;;;;;;;;4941714;28;20043;-75
2022/09/24 07:53:40;;;;;;;16.90;6.53;;;;;;;;;;4955611;28;20055;-71
2022/09/24 07:56:05;;;;;;;11.68;6.75;;;;;;;;;;4938828;28;20058;-74
2022/09/24 07:58:31;;;;;;;9.98;6.45;;;;;;;;;;4945423;28;20059;-75
2022/09/24 08:00:58;;;;;;;11.82;7.40;;;;;;;;;;4947473;28;20056;-75
2022/09/24 08:03:24;;;;;;;12.40;7.15;;;;;;;;;;4943838;28;20074;-75
2022/09/24 08:05:50;;;;;;;13.88;7.45;;;;;;;;;;4946931;28;20767;-76
2022/09/24 08:08:19;;;;;;;11.93;5.55;;;;;;;;;;4938789;28;20059;-73
2022/09/24 08:10:45;;;;;;;12.10;5.13;;;;;;;;;;4944529;28;20600;-75
2022/09/24 08:13:11;;;;;;;11.43;5.00;;;;;;;;;;4945808;28;20064;-73
2022/09/24 08:15:37;;;;;;;13.35;5.07;;;;;;;;;;4965987;28;20090;-73
2022/09/24 08:18:04;;;;;;;10.48;4.80;;;;;;;;;;4948053;28;20086;-75
2022/09/24 08:20:31;;;;;;;9.48;4.68;;;;;;;;;;4946261;28;20053;-74
2022/09/24 08:23:06;;;;;;;10.70;4.80;;;;;;;;;;4962932;28;20409;-74
2022/09/24 08:25:32;;;;;;;11.93;4.47;;;;;;;;;;4953594;28;20420;-73
2022/09/24 08:28:05;;;;;;;10.90;4.75;;;;;;;;;;4939798;28;20043;-74
2022/09/24 08:30:32;;;;;;;9.52;4.03;;;;;;;;;;4943840;28;20130;-75
2022/09/24 08:32:58;;;;;;;10.48;4.35;;;;;;;;;;4945626;28;20067;-77
2022/09/24 08:35:24;;;;;;;10.30;4.43;;;;;;;;;;4947043;28;20492;-75
2022/09/24 08:37:53;;;;;;;10.57;4.18;;;;;;;;;;4947208;28;20529;-72
2022/09/24 08:40:24;;;;;;;19.60;4.97;;;;;;;;;;4952608;28;20457;-78
2022/09/24 08:43:05;;;;;;;9.25;4.25;;;;;;;;;;4954315;28;20047;-78
2022/09/24 08:48:28;;;;;;;11.40;4.68;;;;;;;;;;4957541;28;20063;-72
2022/09/24 08:51:01;;;;;;;12.30;4.60;;;;;;;;;;4954543;28;20157;-73
2022/09/24 08:53:49;;;;;;;6.97;4.20;;;;;;;;;;4954947;28;20122;-76
2022/09/24 08:56:24;;;;;;;11.45;5.30;;;;;;;;;;4942452;28;20082;-75
2022/09/24 08:58:57;;;;;;;7.97;4.45;;;;;;;;;;4945162;28;20062;-77
2022/09/24 09:01:44;;;;;;;9.93;4.43;;;;;;;;;;4949188;28;20559;-76
2022/09/24 09:04:25;;;;;;;9.65;4.35;;;;;;;;;;4945551;28;20150;-79
2022/09/24 09:07:14;;;;;;;13.50;5.35;;;;;;;;;;4945796;28;20469;-77
2022/09/24 09:09:53;;;;;;;13.48;4.60;;;;;;;;;;4948000;28;20551;-78
2022/09/24 09:12:37;;;;;;;11.25;4.22;;;;;;;;;;4949956;28;20051;-75
2022/09/24 09:15:18;;;;;;;15.93;4.25;;;;;;;;;;4952066;28;20074;-76
2022/09/24 09:18:01;;;;;;;9.48;3.28;;;;;;;;;;4961063;28;20067;-76
2022/09/24 09:20:37;;;;;;;8.75;3.28;;;;;;;;;;4957323;28;20059;-74
2022/09/24 09:23:29;;;;;;;10.57;4.22;;;;;;;;;;4957519;28;20055;-74
2022/09/24 09:25:58;;;;;;;9.70;2.72;;;;;;;;;;4962016;28;20067;-75
2022/09/24 09:28:26;;;;;;;10.82;3.20;;;;;;;;;;4964850;28;20031;-78
2022/09/24 09:31:05;;;;;;;10.18;2.90;;;;;;;;;;4960745;28;20058;-82
2022/09/24 09:33:43;;;;;;;10.38;3.30;;;;;;;;;;4961626;28;20050;-77
2022/09/24 09:36:25;;;;;;;7.90;3.00;;;;;;;;;;4961176;28;20031;-77
2022/09/24 09:39:00;;;;;;;9.70;2.95;;;;;;;;;;4957300;28;20586;-79
2022/09/24 09:41:51;;;;;;;7.93;3.17;;;;;;;;;;4962910;28;20057;-78
2022/09/24 09:44:25;;;;;;;8.20;2.85;;;;;;;;;;4978207;28;20248;-79
2022/09/24 09:46:56;;;;;;;9.90;2.88;;;;;;;;;;4957895;28;20054;-74
2022/09/24 09:49:28;;;;;;;7.68;2.85;;;;;;;;;;4956800;28;20065;-71
2022/09/24 09:51:56;;;;;;;16.38;3.28;;;;;;;;;;4963349;28;20138;-75
2022/09/24 09:54:37;;;;;;;10.63;3.20;;;;;;;;;;4960124;28;20118;-79
2022/09/24 09:57:05;;;;;;;8.20;3.00;;;;;;;;;;4962794;28;20051;-75
2022/09/24 09:59:34;;;;;;;8.88;2.80;;;;;;;;;;4960319;28;20066;-75
2022/09/24 10:02:00;;;;;;;17.38;3.15;;;;;;;;;;4956430;28;20188;-73
2022/09/24 10:04:40;;;;;;;11.23;2.83;;;;;;;;;;4944953;28;20137;-76
2022/09/24 10:07:16;;;;;;;11.18;2.80;;;;;;;;;;4940870;28;20047;-75
2022/09/24 10:09:44;;;;;;;6.85;2.70;;;;;;;;;;4942715;28;20066;-77
2022/09/24 10:12:13;;;;;;;5.97;2.63;;;;;;;;;;4945270;28;20113;-76
2022/09/24 10:14:38;;;;;;;13.52;3.25;;;;;;;;;;4944408;28;20070;-78
2022/09/24 10:17:05;;;;;;;8.85;2.50;;;;;;;;;;4944497;28;20545;-77
2022/09/24 10:19:34;;;;;;;8.35;3.00;;;;;;;;;;4943494;28;20051;-75
2022/09/24 10:22:17;;;;;;;5.55;2.72;;;;;;;;;;4948613;28;20051;-76
2022/09/24 10:24:43;;;;;;;7.97;2.92;;;;;;;;;;4947452;28;20460;-72
2022/09/24 10:27:13;;;;;;;5.72;3.00;;;;;;;;;;4939198;28;20043;-75
2022/09/24 10:32:28;;;;;;;5.97;2.63;;;;;;;;;;4945450;28;20484;-74
2022/09/24 10:35:22;;;;;;;6.50;2.45;;;;;;;;;;4943991;28;20089;-73
2022/09/24 10:37:53;;;;;;;9.30;2.83;;;;;;;;;;4944419;28;20047;-74
2022/09/24 10:40:24;;;;;;;7.85;2.80;;;;;;;;;;4946516;28;20051;-75
2022/09/24 10:43:02;;;;;;;10.63;2.80;;;;;;;;;;4948263;28;20138;-78
2022/09/24 10:45:50;;;;;;;7.88;2.60;;;;;;;;;;4945086;28;20134;-75
2022/09/24 10:48:31;;;;;;;8.00;2.78;;;;;;;;;;4943049;28;20051;-73
2022/09/24 10:51:34;;;;;;;13.10;2.78;;;;;;;;;;4946442;28;20050;-74
2022/09/24 10:54:31;;;;;;;9.23;2.63;;;;;;;;;;4946258;28;20130;-75
2022/09/24 10:57:02;;;;;;;9.20;2.90;;;;;;;;;;4952013;28;20039;-74
2022/09/24 10:59:39;;;;;;;7.93;2.65;;;;;;;;;;4946550;28;20047;-72
2022/09/24 11:02:20;;;;;;;5.78;2.38;;;;;;;;;;4949726;28;20062;-75
2022/09/24 11:04:58;;;;;;;9.82;2.65;;;;;;;;;;4948343;28;20051;-71
2022/09/24 11:07:40;;;;;;;10.05;3.00;;;;;;;;;;4947053;28;20043;-71
2022/09/24 11:10:24;;;;;;;7.75;2.95;;;;;;;;;;4946403;28;20126;-72
2022/09/24 11:13:12;;;;;;;7.78;2.70;;;;;;;;;;4947337;28;20052;-80
2022/09/24 11:15:53;;;;;;;6.82;2.70;;;;;;;;;;4942160;28;20059;-73
2022/09/24 11:18:31;;;;;;;8.52;2.63;;;;;;;;;;4943023;28;20993;-67
2022/09/24 11:20:57;;;;;;;7.85;2.45;;;;;;;;;;4944349;28;20074;-71
2022/09/24 11:24:04;;;;;;;8.60;2.70;;;;;;;;;;4943301;28;20055;-64
2022/09/24 11:26:53;;;;;;;5.72;2.95;;;;;;;;;;4922678;29;20669;-70
2022/09/24 11:29:54;;;;;;;7.72;2.88;;;;;;;;;;4923761;29;20048;-68
2022/09/24 11:32:41;;;;;;;7.15;3.22;;;;;;;;;;4924598;29;20182;-68
2022/09/24 11:35:51;;;;;;;5.97;2.85;;;;;;;;;;4924779;29;20124;-70
2022/09/24 11:38:47;;;;;;;9.88;3.30;;;;;;;;;;4920448;29;20060;-69
2022/09/24 11:41:36;;;;;;;8.23;3.40;;;;;;;;;;4897134;29;20102;-69
2022/09/24 11:44:33;;;;;;;9.35;2.70;;;;;;;;;;4908235;29;20055;-68
2022/09/24 11:47:05;;;;;;;7.45;3.03;;;;;;;;;;4915289;29;20102;-68
2022/09/24 11:49:43;;;;;;;8.60;3.58;;;;;;;;;;4924395;29;20130;-68
2022/09/24 11:52:49;;;;;;;8.60;3.30;;;;;;;;;;4922723;29;20131;-73
2022/09/24 11:55:24;;;;;;;7.68;2.75;;;;;;;;;;4900870;29;20052;-71
2022/09/24 11:57:58;;;;;;;7.55;2.80;;;;;;;;;;4914280;29;20068;-68
2022/09/24 12:00:31;;;;;;;8.57;2.95;;;;;;;;;;4924022;29;20502;-68
2022/09/24 12:03:09;;;;;;;8.13;3.03;;;;;;;;;;4923130;29;20056;-69
2022/09/24 12:05:59;;;;;;;5.25;2.85;;;;;;;;;;4919087;29;20067;-68
2022/09/24 12:09:14;;;;;;;8.40;3.10;;;;;;;;;;4923198;29;20469;-71
2022/09/24 12:11:47;;;;;;;6.90;2.90;;;;;;;;;;4880004;29;20499;-70
2022/09/24 12:14:21;;;;;;;6.60;2.80;;;;;;;;;;4881879;29;20567;-71
2022/09/24 12:16:53;;;;;;;6.72;2.83;;;;;;;;;;4874577;29;20370;-67
2022/09/24 12:19:37;;;;;;;8.50;2.72;;;;;;;;;;4881447;29;20479;-67
2022/09/24 12:22:05;;;;;;;6.63;3.00;;;;;;;;;;4884874;29;20051;-69
2022/09/24 12:24:40;;;;;;;5.50;2.33;;;;;;;;;;4880108;29;20053;-67
2022/09/24 12:27:12;;;;;;;6.90;2.85;;;;;;;;;;4876779;29;20064;-69
2022/09/24 12:32:55;;;;;;;6.80;3.08;;;;;;;;;;4898864;29;20143;-70
2022/09/24 12:35:33;;;;;;;27.42;4.93;;;;;;;;;;4897009;29;20048;-70
2022/09/24 12:38:19;;;;;;;8.13;2.78;;;;;;;;;;4891887;29;20838;-71
2022/09/24 12:40:57;;;;;;;9.85;3.08;;;;;;;;;;4878262;29;20063;-69
2022/09/24 12:43:47;;;;;;;5.72;2.83;;;;;;;;;;4898056;29;20404;-70
2022/09/24 12:46:20;;;;;;;7.20;2.70;;;;;;;;;;4895925;29;20056;-70
2022/09/24 12:48:48;;;;;;;5.22;2.50;;;;;;;;;;4918595;28;20359;-68
2022/09/24 12:51:15;;;;;;;8.10;2.30;;;;;;;;;;4942834;28;20540;-69
2022/09/24 12:53:53;;;;;;;10.23;2.30;;;;;;;;;;4943942;28;20134;-70
2022/09/24 12:56:25;;;;;;;6.90;2.30;;;;;;;;;;4940574;28;20059;-68
2022/09/24 12:58:52;;;;;;;9.60;2.85;;;;;;;;;;4943876;28;20425;-71
2022/09/24 13:01:23;;;;;;;5.88;2.00;;;;;;;;;;4943813;28;20051;-69
2022/09/24 13:04:04;;;;;;;5.90;2.50;;;;;;;;;;4943759;28;20051;-70
2022/09/24 13:06:34;;;;;;;7.35;2.17;;;;;;;;;;4940210;28;20532;-68
2022/09/24 13:09:00;;;;;;;7.28;2.50;;;;;;;;;;4943006;28;20293;-69
2022/09/24 13:11:36;;;;;;;9.20;2.45;;;;;;;;;;4942187;28;20861;-70
2022/09/24 13:14:11;;;;;;;6.40;2.00;;;;;;;;;;4943984;28;20055;-70
2022/09/24 13:16:44;;;;;;;6.28;2.33;;;;;;;;;;4941907;28;20047;-69
2022/09/24 13:19:19;;;;;;;9.30;2.45;;;;;;;;;;4943647;28;20059;-70
2022/09/24 13:21:53;;;;;;;3.97;1.95;;;;;;;;;;4938849;28;20039;-67
2022/09/24 13:24:29;;;;;;;4.53;2.05;;;;;;;;;;4942588;28;20058;-69
2022/09/24 13:27:27;;;;;;;6.35;2.42;;;;;;;;;;4940618;28;20485;-70
2022/09/24 13:30:15;;;;;;;9.85;2.67;;;;;;;;;;4944114;28;20074;-67
2022/09/24 13:33:06;;;;;;;4.32;1.92;;;;;;;;;;4943017;28;20044;-70
2022/09/24 13:36:00;;;;;;;9.07;2.20;;;;;;;;;;4939215;28;20059;-67
2022/09/24 13:38:32;;;;;;;6.38;1.90;;;;;;;;;;4943233;28;20071;-69
2022/09/24 13:41:15;;;;;;;5.60;2.20;;;;;;;;;;4943469;28;20058;-71
2022/09/24 13:43:57;;;;;;;4.75;2.45;;;;;;;;;;4941816;28;20055;-67
2022/09/24 13:46:25;;;;;;;7.00;2.20;;;;;;;;;;4940628;28;20062;-67
2022/09/24 13:48:56;;;;;;;4.88;2.22;;;;;;;;;;4941570;28;20066;-66
2022/09/24 13:51:26;;;;;;;5.70;2.00;;;;;;;;;;4941617;28;20182;-70
2022/09/24 13:54:22;;;;;;;6.25;2.10;;;;;;;;;;4941449;28;20055;-69
2022/09/24 13:57:22;;;;;;;5.13;2.15;;;;;;;;;;4937028;28;20058;-67
2022/09/24 13:59:48;;;;;;;7.47;2.13;;;;;;;;;;4939700;28;20106;-69
2022/09/24 14:02:25;;;;;;;7.72;2.40;;;;;;;;;;4944831;28;20043;-68
2022/09/24 14:04:59;;;;;;;4.38;2.15;;;;;;;;;;4944098;28;20063;-69
2022/09/24 14:07:26;;;;;;;7.60;2.38;;;;;;;;;;4939522;28;20063;-67
2022/09/24 14:10:24;;;;;;;9.32;2.88;;;;;;;;;;4944293;28;20525;-67
2022/09/24 14:13:04;;;;;;;6.07;2.42;;;;;;;;;;4939054;28;20382;-69
2022/09/24 14:15:30;;;;;;;4.07;2.08;;;;;;;;;;4940757;28;20138;-68
2022/09/24 14:17:57;;;;;;;5.57;2.30;;;;;;;;;;4939255;28;20113;-67
2022/09/24 14:20:29;;;;;;;6.90;3.03;;;;;;;;;;4944924;28;20390;-67
2022/09/24 14:22:55;;;;;;;5.60;2.22;;;;;;;;;;4946243;28;20060;-68
2022/09/24 14:25:31;;;;;;;3.72;2.30;;;;;;;;;;4942888;28;20448;-71
2022/09/24 14:28:01;;;;;;;6.38;2.20;;;;;;;;;;4943504;28;20489;-69
2022/09/24 14:30:29;;;;;;;9.82;2.60;;;;;;;;;;4948181;28;20500;-70
2022/09/24 14:33:10;;;;;;;8.13;2.92;;;;;;;;;;4946903;28;20638;-67
2022/09/24 14:35:37;;;;;;;5.63;2.60;;;;;;;;;;4946188;28;20421;-70
2022/09/24 14:38:11;;;;;;;4.35;2.30;;;;;;;;;;4945460;28;20062;-69
2022/09/24 14:40:39;;;;;;;5.25;2.00;;;;;;;;;;4948345;28;20632;-70
2022/09/24 14:43:17;;;;;;;5.10;1.90;;;;;;;;;;4945497;28;20044;-69
2022/09/24 14:45:44;;;;;;;5.45;2.42;;;;;;;;;;4944689;28;20496;-70
2022/09/24 14:48:18;;;;;;;5.82;2.28;;;;;;;;;;4944796;28;20504;-70
2022/09/24 14:50:44;;;;;;;5.15;2.17;;;;;;;;;;4945660;28;20078;-69
2022/09/24 14:53:21;;;;;;;6.45;2.72;;;;;;;;;;4945876;28;20039;-66
2022/09/24 14:55:48;;;;;;;7.75;2.10;;;;;;;;;;4941915;28;20047;-71
2022/09/24 14:58:30;;;;;;;9.07;2.30;;;;;;;;;;4943653;28;20142;-70
2022/09/24 15:00:59;;;;;;;3.78;1.98;;;;;;;;;;4945066;28;20069;-70
2022/09/24 15:03:40;;;;;;;4.20;2.03;;;;;;;;;;4948234;28;20109;-68
2022/09/24 15:06:33;;;;;;;6.47;2.00;;;;;;;;;;4942045;28;20146;-70
2022/09/24 15:09:25;;;;;;;4.57;2.10;;;;;;;;;;4945876;28;20055;-70
2022/09/24 15:11:54;;;;;;;4.05;2.10;;;;;;;;;;4947008;28;20264;-70
2022/09/24 15:14:26;;;;;;;7.22;2.38;;;;;;;;;;4945365;28;20047;-73
2022/09/24 15:16:53;;;;;;;5.72;1.88;;;;;;;;;;4943073;28;20505;-70
2022/09/24 15:19:27;;;;;;;8.43;2.47;;;;;;;;;;4945283;28;20055;-68
2022/09/24 15:21:56;;;;;;;6.87;2.20;;;;;;;;;;4944508;28;20680;-71
2022/09/24 15:24:22;;;;;;;5.75;2.08;;;;;;;;;;4944268;28;20309;-70
2022/09/24 15:27:04;;;;;;;4.97;2.13;;;;;;;;;;4941018;28;20631;-69